Time;durP1;ratioP1;P1;durP2;ratioP2;P2;SDS_P1;SDS_P2;PMS_P1;PMS_P2;Temp;Humidity;BMP_temperature;BMP_pressure;BME280_temperature;BME280_humidity;BME280_pressure;Samples;Min_cycle;Max_cycle;Signal;HPM_P1;HPM_P2
2023/09/20 00:01:51;;;;;;;5.20;3.60;;;;;;;25.91;39.09;100934.70;103310;1291;64038;-83
2023/09/20 00:04:17;;;;;;;5.00;3.70;;;;;;;25.92;39.00;100937.38;103471;1291;65701;-83
2023/09/20 00:06:43;;;;;;;5.90;3.90;;;;;;;25.92;38.88;100938.63;103377;1292;61466;-83
2023/09/20 00:09:08;;;;;;;5.30;3.70;;;;;;;25.92;39.01;100949.61;103451;1291;61480;-82
2023/09/20 00:11:35;;;;;;;5.20;3.60;;;;;;;25.92;38.97;100942.81;103545;1291;61428;-84
2023/09/20 00:14:00;;;;;;;6.20;4.00;;;;;;;25.92;38.93;100941.34;103416;1296;62066;-83
2023/09/20 00:16:28;;;;;;;6.20;4.10;;;;;;;25.92;38.86;100945.12;103302;1292;61425;-83
2023/09/20 00:18:55;;;;;;;6.10;3.90;;;;;;;25.92;39.07;100941.73;103285;1291;61264;-83
2023/09/20 00:21:21;;;;;;;5.90;3.80;;;;;;;25.92;39.04;100945.32;103397;1292;61404;-83
2023/09/20 00:23:47;;;;;;;5.60;3.80;;;;;;;25.92;38.91;100946.58;103419;1294;61266;-83
2023/09/20 00:26:13;;;;;;;5.90;4.10;;;;;;;25.92;38.97;100953.27;103401;1291;61436;-83
2023/09/20 00:28:39;;;;;;;5.30;3.90;;;;;;;25.92;38.93;100951.10;103319;1291;61490;-83
2023/09/20 00:31:05;;;;;;;4.50;3.70;;;;;;;25.92;39.08;100952.02;103308;1290;61391;-83
2023/09/20 00:33:32;;;;;;;7.40;3.90;;;;;;;25.92;38.95;100952.02;103319;1291;61414;-83
2023/09/20 00:36:00;;;;;;;6.70;4.20;;;;;;;25.91;39.03;100946.80;103304;1291;65764;-82
2023/09/20 00:38:26;;;;;;;5.70;3.80;;;;;;;25.91;39.04;100941.21;103308;1292;61305;-83
2023/09/20 00:40:52;;;;;;;5.30;3.80;;;;;;;25.91;39.08;100935.49;103322;1291;63024;-82
2023/09/20 00:43:24;;;;;;;5.40;3.90;;;;;;;25.91;38.80;100938.73;103437;1292;61321;-83
2023/09/20 00:45:50;;;;;;;5.00;3.70;;;;;;;25.91;38.94;100945.06;103339;1295;65825;-82
2023/09/20 00:48:17;;;;;;;4.90;3.90;;;;;;;25.91;38.87;100946.85;103278;1293;61326;-83
2023/09/20 00:50:44;;;;;;;5.20;3.90;;;;;;;25.90;38.78;100943.47;103421;1291;61445;-83
2023/09/20 00:53:11;;;;;;;6.00;3.70;;;;;;;25.90;39.10;100942.21;103309;1296;63646;-83
2023/09/20 00:55:37;;;;;;;5.20;3.60;;;;;;;25.90;38.94;100946.91;103210;1292;65865;-83
2023/09/20 00:58:29;;;;;;;5.90;3.80;;;;;;;25.90;38.97;100944.38;103392;1290;61333;-82
2023/09/20 01:00:55;;;;;;;5.80;3.90;;;;;;;25.89;38.95;100946.11;103268;1292;62219;-83
2023/09/20 01:03:21;;;;;;;6.20;3.90;;;;;;;25.89;38.89;100943.02;103345;1293;61430;-83
2023/09/20 01:05:48;;;;;;;5.90;4.10;;;;;;;25.89;38.97;100945.18;103373;1291;61417;-83
2023/09/20 01:08:13;;;;;;;5.40;3.90;;;;;;;25.89;38.96;100945.54;103403;1296;61323;-83
2023/09/20 01:10:40;;;;;;;5.40;4.10;;;;;;;25.89;39.03;100940.50;103285;1295;61356;-82
2023/09/20 01:13:07;;;;;;;5.70;4.10;;;;;;;25.90;38.96;100938.15;103065;1291;61340;-82
2023/09/20 01:15:33;;;;;;;7.50;4.40;;;;;;;25.90;38.95;100939.40;103308;1291;62166;-82
2023/09/20 01:17:59;;;;;;;5.40;3.80;;;;;;;25.90;38.91;100939.39;103473;1291;61331;-83
2023/09/20 01:20:25;;;;;;;5.20;4.00;;;;;;;25.89;38.80;100941.77;103317;1291;61411;-83
2023/09/20 01:22:54;;;;;;;5.70;3.60;;;;;;;25.89;39.01;100943.40;103405;1291;61320;-83
2023/09/20 01:25:22;;;;;;;5.80;3.80;;;;;;;25.89;39.01;100944.67;103475;1291;65832;-83
2023/09/20 01:27:55;;;;;;;6.40;4.50;;;;;;;25.89;38.86;100941.95;103461;1290;61337;-83
2023/09/20 01:30:36;;;;;;;7.40;4.00;;;;;;;25.89;38.85;100943.23;103066;1292;61502;-83
2023/09/20 01:33:05;;;;;;;9.50;4.10;;;;;;;25.89;38.97;100948.27;103345;1290;63808;-83
2023/09/20 01:35:31;;;;;;;6.20;3.80;;;;;;;25.89;39.03;100948.12;103393;1291;65663;-83
2023/09/20 01:37:57;;;;;;;5.40;4.10;;;;;;;25.88;39.08;100948.33;103216;1291;61390;-83
2023/09/20 01:40:25;;;;;;;6.70;4.30;;;;;;;25.89;39.03;100942.52;103322;1291;61420;-83
2023/09/20 01:42:58;;;;;;;5.80;3.90;;;;;;;25.88;38.93;100940.21;103320;1291;63829;-82
2023/09/20 01:45:23;;;;;;;6.40;4.00;;;;;;;25.88;38.78;100936.30;103351;1292;65809;-83
2023/09/20 01:47:50;;;;;;;6.30;4.40;;;;;;;25.89;39.03;100939.11;103394;1291;61324;-83
2023/09/20 01:50:25;;;;;;;5.70;3.90;;;;;;;25.88;38.91;100936.14;103224;1291;62532;-83
2023/09/20 01:52:52;;;;;;;5.90;4.10;;;;;;;25.88;38.88;100935.95;103346;1292;63920;-82
2023/09/20 01:55:22;;;;;;;5.20;3.70;;;;;;;25.88;38.75;100936.11;103256;1292;65827;-82
2023/09/20 01:57:51;;;;;;;5.90;4.10;;;;;;;25.88;38.88;100933.98;103333;1291;61331;-83
2023/09/20 02:00:25;;;;;;;7.10;4.10;;;;;;;25.87;39.13;100932.20;103434;1291;61471;-82
2023/09/20 02:02:53;;;;;;;5.50;3.80;;;;;;;25.87;39.04;100932.02;103285;1296;63858;-83
2023/09/20 02:05:21;;;;;;;5.50;3.80;;;;;;;25.87;39.08;100932.38;103267;1292;65681;-82
2023/09/20 02:07:47;;;;;;;5.90;4.00;;;;;;;25.88;38.89;100929.83;103033;1295;61520;-83
2023/09/20 02:10:14;;;;;;;5.20;4.00;;;;;;;25.88;38.81;100927.66;103419;1292;61379;-82
2023/09/20 02:12:44;;;;;;;5.30;4.00;;;;;;;25.88;39.04;100925.70;103048;1291;64132;-82
2023/09/20 02:15:10;;;;;;;6.60;4.30;;;;;;;25.88;38.81;100926.58;103335;1291;65926;-82
2023/09/20 02:17:37;;;;;;;5.60;4.00;;;;;;;25.87;38.94;100926.05;103363;1296;61404;-83
2023/09/20 02:20:08;;;;;;;6.00;4.40;;;;;;;25.87;39.04;100929.34;103303;1291;61298;-83
2023/09/20 02:22:39;;;;;;;6.30;4.30;;;;;;;25.87;38.95;100933.66;103452;1291;63611;-82
2023/09/20 02:25:11;;;;;;;5.80;4.10;;;;;;;25.87;39.01;100935.27;103351;1295;61427;-82
2023/09/20 02:27:39;;;;;;;6.30;4.00;;;;;;;25.87;38.88;100930.45;103284;1291;61263;-82
2023/09/20 02:30:07;;;;;;;6.30;4.10;;;;;;;25.87;38.88;100929.00;103334;1291;61423;-83
2023/09/20 02:32:32;;;;;;;5.30;3.90;;;;;;;25.87;38.95;100928.83;103349;1291;63838;-83
2023/09/20 02:35:02;;;;;;;6.60;4.20;;;;;;;25.87;38.98;100929.36;103266;1291;61374;-83
2023/09/20 02:37:31;;;;;;;6.20;4.30;;;;;;;25.87;38.90;100929.76;103389;1293;61618;-82
2023/09/20 02:39:57;;;;;;;7.10;4.30;;;;;;;25.87;38.98;100927.41;103333;1292;61380;-83
2023/09/20 02:42:24;;;;;;;6.20;4.20;;;;;;;25.87;38.92;100929.54;103444;1295;61464;-83
2023/09/20 02:44:51;;;;;;;6.70;4.10;;;;;;;25.87;38.94;100929.58;103137;1291;61311;-83
2023/09/20 02:47:18;;;;;;;6.40;4.30;;;;;;;25.86;38.91;100927.98;103262;1291;61594;-83
2023/09/20 02:49:48;;;;;;;5.00;4.00;;;;;;;25.87;39.04;100927.04;103331;1291;61800;-83
2023/09/20 02:52:17;;;;;;;6.30;4.70;;;;;;;25.86;39.01;100927.77;103318;1291;63617;-82
2023/09/20 02:54:43;;;;;;;6.80;3.90;;;;;;;25.87;39.04;100937.67;103391;1292;74551;-83
2023/09/20 02:57:12;;;;;;;6.80;4.40;;;;;;;25.86;38.94;100937.33;103337;1291;61397;-82
2023/09/20 02:59:39;;;;;;;5.50;4.10;;;;;;;25.86;38.95;100930.87;103035;1291;61296;-83
2023/09/20 03:02:05;;;;;;;6.00;4.10;;;;;;;25.86;38.90;100940.44;103307;1292;64057;-83
2023/09/20 03:04:31;;;;;;;7.00;4.20;;;;;;;25.86;39.11;100936.79;103416;1294;61340;-83
2023/09/20 03:06:57;;;;;;;6.80;4.10;;;;;;;25.86;38.91;100931.06;103055;1291;364425;-83
2023/09/20 03:09:26;;;;;;;5.50;4.20;;;;;;;25.86;39.15;100930.52;103422;1291;61423;-83
2023/09/20 03:11:52;;;;;;;5.90;4.20;;;;;;;25.85;38.97;100926.60;103330;1291;63900;-83
2023/09/20 03:14:18;;;;;;;6.50;4.60;;;;;;;25.86;38.97;100928.39;103351;1291;65593;-83
2023/09/20 03:16:44;;;;;;;5.10;4.00;;;;;;;25.86;38.89;100936.34;103334;1294;62464;-82
2023/09/20 03:19:14;;;;;;;5.70;4.40;;;;;;;25.86;38.84;100943.33;103266;1292;61282;-83
2023/09/20 03:21:50;;;;;;;6.10;4.30;;;;;;;25.85;38.77;100942.27;103413;1292;63924;-83
2023/09/20 03:24:16;;;;;;;6.30;4.00;;;;;;;25.86;38.98;100940.29;103474;1291;65676;-83
2023/09/20 03:26:42;;;;;;;5.30;3.90;;;;;;;25.86;38.94;100943.53;103276;1291;61442;-83
2023/09/20 03:29:08;;;;;;;6.10;4.40;;;;;;;25.86;38.88;100937.02;103347;1291;62064;-83
2023/09/20 03:31:34;;;;;;;6.50;4.40;;;;;;;25.86;38.97;100930.67;103318;1292;61365;-82
2023/09/20 03:34:00;;;;;;;5.70;4.50;;;;;;;25.86;39.11;100932.35;103322;1291;61391;-82
2023/09/20 03:36:26;;;;;;;8.60;4.60;;;;;;;25.85;39.09;100928.05;103316;1295;61756;-82
2023/09/20 03:38:55;;;;;;;6.60;4.90;;;;;;;25.85;38.98;100930.27;103274;1291;61465;-82
2023/09/20 03:41:21;;;;;;;8.20;5.20;;;;;;;25.84;39.09;100928.36;103302;1297;61406;-82
2023/09/20 03:43:47;;;;;;;8.70;4.90;;;;;;;25.84;39.15;100933.45;103414;1291;61453;-83
2023/09/20 03:46:13;;;;;;;11.20;5.40;;;;;;;25.83;39.03;100933.66;103472;1291;61369;-82
2023/09/20 03:48:39;;;;;;;7.00;4.60;;;;;;;25.82;38.97;100934.43;103225;1291;61384;-82
2023/09/20 03:51:06;;;;;;;5.20;4.20;;;;;;;25.82;38.85;100937.02;103311;1291;61302;-82
2023/09/20 03:53:34;;;;;;;6.50;4.70;;;;;;;25.81;38.87;100932.22;103225;1291;61560;-82
2023/09/20 03:56:00;;;;;;;9.20;5.20;;;;;;;25.80;38.87;100934.84;103088;1291;61421;-82
2023/09/20 03:58:26;;;;;;;8.80;5.70;;;;;;;25.78;39.00;100931.05;103179;1291;61395;-83
2023/09/20 04:00:52;;;;;;;8.20;4.90;;;;;;;25.76;39.11;100932.88;103387;1291;61424;-82
2023/09/20 04:03:17;;;;;;;7.80;4.80;;;;;;;25.73;38.78;100929.52;103372;1291;62452;-83
2023/09/20 04:05:45;;;;;;;10.40;5.70;;;;;;;25.71;38.84;100931.70;103236;1291;61382;-82
2023/09/20 04:08:11;;;;;;;10.40;5.20;;;;;;;25.69;38.81;100935.09;103271;1297;61398;-83
2023/09/20 04:10:43;;;;;;;7.00;5.30;;;;;;;25.67;38.84;100941.42;103488;1291;61811;-82
2023/09/20 04:13:10;;;;;;;6.90;5.40;;;;;;;25.66;38.75;100939.39;103332;1291;62418;-83
2023/09/20 04:15:40;;;;;;;13.90;5.40;;;;;;;25.64;38.89;100938.45;103193;1294;61471;-82
2023/09/20 04:18:08;;;;;;;9.10;5.20;;;;;;;25.61;38.85;100937.39;103258;1291;61379;-81
2023/09/20 04:20:35;;;;;;;9.30;5.00;;;;;;;25.59;38.87;100938.63;103344;1291;61407;-83
2023/09/20 04:23:02;;;;;;;6.00;4.60;;;;;;;25.59;38.81;100936.67;103470;1291;61855;-83
2023/09/20 04:25:28;;;;;;;7.10;5.00;;;;;;;25.59;38.98;100936.33;103495;1291;65717;-83
2023/09/20 04:27:53;;;;;;;7.10;4.50;;;;;;;25.59;38.76;100931.41;103633;1291;61417;-85
2023/09/20 04:30:19;;;;;;;5.40;4.00;;;;;;;25.60;38.93;100931.92;104069;1291;61398;-84
2023/09/20 04:32:44;;;;;;;9.10;4.20;;;;;;;25.60;38.82;100931.92;103991;1291;61400;-83
2023/09/20 04:35:10;;;;;;;6.70;4.50;;;;;;;25.60;38.86;100926.14;103950;1295;61371;-84
2023/09/20 04:37:36;;;;;;;6.40;4.60;;;;;;;25.60;38.76;100926.83;104034;1291;65839;-84
2023/09/20 04:40:02;;;;;;;12.00;5.20;;;;;;;25.61;38.87;100925.86;103806;1294;61288;-84
2023/09/20 04:42:31;;;;;;;7.80;5.30;;;;;;;25.61;39.02;100921.94;104423;1291;61277;-84
2023/09/20 04:44:57;;;;;;;13.90;6.20;;;;;;;25.61;38.86;100927.88;104403;1291;64015;-83
2023/09/20 04:47:22;;;;;;;10.20;5.70;;;;;;;25.60;38.96;100931.20;104673;1291;61467;-82
2023/09/20 04:49:48;;;;;;;12.30;6.40;;;;;;;25.59;38.82;100939.40;104930;1291;61308;-84
2023/09/20 04:52:15;;;;;;;14.20;6.20;;;;;;;25.59;38.89;100937.95;104501;1291;61485;-83
2023/09/20 04:54:43;;;;;;;17.20;6.40;;;;;;;25.59;38.97;100936.87;104480;1291;61331;-82
2023/09/20 04:57:09;;;;;;;16.30;6.60;;;;;;;25.59;38.98;100939.58;104701;1291;59369;-80
2023/09/20 04:59:36;;;;;;;18.20;5.90;;;;;;;25.59;39.02;100938.52;103943;1290;61388;-81
2023/09/20 05:02:03;;;;;;;13.90;6.20;;;;;;;25.58;38.97;100938.96;104521;1291;61227;-81
2023/09/20 05:04:29;;;;;;;22.00;6.60;;;;;;;25.57;39.06;100938.48;104495;1294;59960;-82
2023/09/20 05:06:58;;;;;;;14.20;6.70;;;;;;;25.54;39.16;100936.20;104780;1294;61397;-82
2023/09/20 05:09:24;;;;;;;21.50;7.10;;;;;;;25.54;39.24;100936.05;104759;1291;59389;-81
2023/09/20 05:11:50;;;;;;;17.20;6.90;;;;;;;25.53;39.32;100937.25;104632;1291;61782;-82
2023/09/20 05:14:15;;;;;;;15.40;6.20;;;;;;;25.48;39.45;100933.16;104385;1291;61361;-81
2023/09/20 05:16:41;;;;;;;13.30;6.10;;;;;;;25.48;39.34;100938.62;104386;1296;61283;-81
2023/09/20 05:19:06;;;;;;;14.60;6.90;;;;;;;25.49;39.36;100938.71;104449;1290;61396;-81
2023/09/20 05:21:32;;;;;;;11.00;6.60;;;;;;;25.50;39.48;100943.30;104197;1291;59826;-81
2023/09/20 05:23:57;;;;;;;10.40;6.50;;;;;;;25.51;39.53;100946.43;104422;1295;61302;-81
2023/09/20 05:26:24;;;;;;;12.30;6.30;;;;;;;25.51;39.40;100950.89;104530;1291;59123;-81
2023/09/20 05:28:50;;;;;;;10.90;6.00;;;;;;;25.53;39.51;100953.13;104276;1291;61513;-81
2023/09/20 05:31:16;;;;;;;12.90;6.70;;;;;;;25.53;39.28;100957.02;104707;1291;61354;-81
2023/09/20 05:33:42;;;;;;;10.00;6.60;;;;;;;25.54;39.28;100956.06;104404;1291;61253;-81
2023/09/20 05:36:08;;;;;;;12.50;6.20;;;;;;;25.54;39.35;100958.24;104389;1291;61362;-81
2023/09/20 05:38:34;;;;;;;13.50;6.10;;;;;;;25.54;39.20;100957.30;104038;1292;61353;-81
2023/09/20 05:41:00;;;;;;;15.80;6.30;;;;;;;25.54;39.18;100960.52;104001;1291;65713;-81
2023/09/20 05:43:25;;;;;;;11.80;6.30;;;;;;;25.55;39.26;100960.49;104518;1291;61410;-81
2023/09/20 05:45:51;;;;;;;10.20;6.40;;;;;;;25.55;39.12;100960.30;104222;1291;61435;-82
2023/09/20 05:48:17;;;;;;;17.20;6.90;;;;;;;25.55;39.20;100965.67;104204;1291;61427;-81
2023/09/20 05:50:43;;;;;;;18.20;6.60;;;;;;;25.55;39.29;100969.52;104476;1291;61247;-83
2023/09/20 05:53:11;;;;;;;30.10;8.00;;;;;;;25.55;39.35;100971.27;104665;1291;61404;-82
2023/09/20 05:55:43;;;;;;;22.80;6.90;;;;;;;25.51;39.68;100971.65;104421;1291;61353;-82
2023/09/20 05:58:09;;;;;;;26.70;7.30;;;;;;;25.46;39.78;100971.37;104364;1291;61493;-81
2023/09/20 06:00:35;;;;;;;22.70;7.50;;;;;;;25.45;39.79;100969.29;104709;1291;61270;-81
2023/09/20 06:03:03;;;;;;;19.60;7.00;;;;;;;25.44;40.04;100973.30;105003;1291;59265;-81
2023/09/20 06:05:31;;;;;;;17.60;6.60;;;;;;;25.43;40.24;100977.23;104794;1291;61481;-81
2023/09/20 06:07:57;;;;;;;17.60;7.00;;;;;;;25.40;40.07;100974.73;104647;1295;59645;-82
2023/09/20 06:10:23;;;;;;;18.40;7.10;;;;;;;25.36;39.97;100978.91;104612;1291;64137;-82
2023/09/20 06:12:50;;;;;;;14.10;6.20;;;;;;;25.33;39.86;100982.52;104841;1291;59465;-82
2023/09/20 06:15:16;;;;;;;11.90;6.20;;;;;;;25.32;40.03;100986.76;104956;1291;59202;-82
2023/09/20 06:17:44;;;;;;;13.40;6.70;;;;;;;25.30;39.90;100994.90;104647;1291;61504;-81
2023/09/20 06:20:18;;;;;;;12.90;6.50;;;;;;;25.30;39.86;100995.58;104987;1291;63773;-81
2023/09/20 06:22:46;;;;;;;26.40;7.90;;;;;;;25.33;39.95;100997.55;104605;1291;66655;-81
2023/09/20 06:25:12;;;;;;;26.50;7.80;;;;;;;25.36;40.00;100997.65;105838;1291;59006;-81
2023/09/20 06:27:39;;;;;;;15.20;5.90;;;;;;;25.39;40.04;100999.36;105580;1291;59797;-81
2023/09/20 06:30:12;;;;;;;19.90;7.20;;;;;;;25.42;40.10;101000.14;104947;1291;61407;-81
2023/09/20 06:32:38;;;;;;;19.30;7.10;;;;;;;25.44;40.13;101002.89;104905;1291;65885;-80
2023/09/20 06:35:04;;;;;;;20.50;7.10;;;;;;;25.45;40.19;101000.25;104789;1291;59353;-81
2023/09/20 06:37:30;;;;;;;15.60;7.00;;;;;;;25.46;40.11;101004.48;104874;1292;61282;-81
2023/09/20 06:39:59;;;;;;;12.80;6.40;;;;;;;25.46;39.98;101007.24;104811;1291;61368;-81
2023/09/20 06:42:25;;;;;;;14.70;7.20;;;;;;;25.46;40.03;101015.02;104555;1290;64548;-81
2023/09/20 06:44:55;;;;;;;12.90;6.50;;;;;;;25.45;40.23;101022.40;104863;1296;61193;-81
2023/09/20 06:47:24;;;;;;;10.70;6.50;;;;;;;25.46;40.36;101028.48;104824;1291;59956;-81
2023/09/20 06:49:49;;;;;;;16.50;7.00;;;;;;;25.47;40.31;101032.36;104893;1290;61270;-81
2023/09/20 06:52:15;;;;;;;15.50;7.60;;;;;;;25.48;40.37;101035.69;105037;1291;61280;-81
2023/09/20 06:54:41;;;;;;;28.60;8.50;;;;;;;25.46;40.43;101038.16;104679;1291;61375;-81
2023/09/20 06:57:07;;;;;;;21.60;7.70;;;;;;;25.44;40.73;101041.81;104786;1291;61333;-81
2023/09/20 06:59:34;;;;;;;14.20;7.50;;;;;;;25.43;40.89;101041.66;104912;1291;61380;-80
2023/09/20 07:02:00;;;;;;;20.20;7.10;;;;;;;25.45;41.10;101046.80;104845;1291;61244;-81
2023/09/20 07:04:26;;;;;;;18.70;7.70;;;;;;;25.46;41.21;101049.95;104896;1292;59339;-80
2023/09/20 07:06:55;;;;;;;22.40;7.40;;;;;;;25.48;41.46;101044.73;104788;1291;61345;-81
2023/09/20 07:09:21;;;;;;;;;;;;;;;25.50;41.63;101051.52;104580;1291;61104;-80
2023/09/20 07:11:50;;;;;;;15.40;6.60;;;;;;;25.50;41.55;101053.54;104564;1292;61414;-80
2023/09/20 07:14:20;;;;;;;13.70;7.40;;;;;;;25.53;41.57;101060.15;104551;1291;67049;-81
2023/09/20 07:16:52;;;;;;;19.90;7.30;;;;;;;25.54;41.53;101063.27;104780;1291;61338;-80
2023/09/20 07:19:19;;;;;;;13.00;6.80;;;;;;;25.55;41.60;101066.09;105113;1291;61199;-81
2023/09/20 07:21:45;;;;;;;35.20;7.70;;;;;;;25.54;41.53;101069.21;105256;1291;63618;-81
2023/09/20 07:24:12;;;;;;;16.70;6.50;;;;;;;25.53;41.26;101069.85;104949;1291;59642;-81
2023/09/20 07:26:43;;;;;;;15.40;7.10;;;;;;;25.53;41.36;101073.61;105108;1291;59291;-82
2023/09/20 07:29:12;;;;;;;11.90;6.50;;;;;;;25.53;41.17;101071.63;105112;1291;61452;-83
2023/09/20 07:31:38;;;;;;;19.50;6.70;;;;;;;25.53;41.18;101071.30;105112;1295;63832;-82
2023/09/20 07:34:04;;;;;;;13.70;6.90;;;;;;;25.51;41.32;101074.35;105022;1296;61275;-81
2023/09/20 07:36:43;;;;;;;13.30;6.40;;;;;;;25.51;41.41;101077.27;105010;1291;61391;-82
2023/09/20 07:39:17;;;;;;;13.60;6.70;;;;;;;25.51;41.25;101080.70;104989;1291;61414;-81
2023/09/20 07:41:46;;;;;;;12.30;6.40;;;;;;;25.51;41.25;101077.95;105015;1295;64942;-82
2023/09/20 07:44:15;;;;;;;11.40;6.50;;;;;;;25.52;41.24;101078.79;104854;1291;64676;-81
2023/09/20 07:46:42;;;;;;;11.70;6.80;;;;;;;25.53;41.44;101081.69;104826;1291;59245;-82
2023/09/20 07:49:09;;;;;;;13.10;6.50;;;;;;;25.56;41.27;101085.30;104858;1291;61290;-82
2023/09/20 07:51:39;;;;;;;13.70;7.20;;;;;;;25.58;41.41;101089.30;104885;1291;63804;-81
2023/09/20 07:54:10;;;;;;;15.90;7.30;;;;;;;25.58;41.39;101090.66;105179;1292;65707;-81
2023/09/20 07:56:40;;;;;;;16.20;7.10;;;;;;;25.55;41.57;101094.58;104881;1291;61301;-82
2023/09/20 07:59:05;;;;;;;18.50;7.30;;;;;;;25.51;41.55;101090.53;104793;1291;61235;-81
2023/09/20 08:01:32;;;;;;;21.30;7.20;;;;;;;25.49;41.69;101089.84;104771;1291;60162;-81
2023/09/20 08:04:00;;;;;;;18.50;7.10;;;;;;;25.49;41.87;101091.45;105067;1291;61397;-81
2023/09/20 08:06:29;;;;;;;11.70;7.60;;;;;;;25.47;41.96;101093.78;104993;1291;61222;-82
2023/09/20 08:08:56;;;;;;;15.20;6.90;;;;;;;25.42;41.99;101099.48;104868;1297;61468;-82
2023/09/20 08:11:22;;;;;;;11.40;6.80;;;;;;;25.38;42.12;101100.88;104869;1291;60160;-82
2023/09/20 08:13:54;;;;;;;12.10;6.80;;;;;;;25.38;42.08;101101.73;104700;1291;59059;-82
2023/09/20 08:16:21;;;;;;;13.20;7.00;;;;;;;25.38;41.97;101098.18;104580;1291;61521;-82
2023/09/20 08:21:32;;;;;;;17.80;6.90;;;;;;;25.40;42.01;101094.02;104849;1291;72687;-82
2023/09/20 08:59:55;;;;;;;19.80;6.80;;;;;;;25.51;42.13;101097.77;105153;1291;61196;-81
2023/09/20 09:02:22;;;;;;;27.40;6.10;;;;;;;25.54;42.29;101095.34;105036;1291;61167;-83
2023/09/20 09:04:53;;;;;;;17.80;6.00;;;;;;;25.53;42.36;101097.04;104793;1292;59282;-81
2023/09/20 09:07:22;;;;;;;12.60;6.10;;;;;;;25.51;42.30;101096.16;105105;1292;65783;-81
2023/09/20 09:09:52;;;;;;;18.20;6.40;;;;;;;25.51;42.25;101094.69;105077;1291;59129;-81
2023/09/20 09:12:19;;;;;;;21.90;6.50;;;;;;;25.51;42.07;101090.75;105010;1291;61324;-81
2023/09/20 09:14:48;;;;;;;10.70;5.60;;;;;;;25.47;41.96;101086.77;105028;1292;63936;-81
2023/09/20 09:17:14;;;;;;;;;;;;;;;25.43;41.92;101087.12;104830;1291;74648;-81
2023/09/20 09:19:40;;;;;;;14.30;5.80;;;;;;;25.34;41.83;101089.67;104777;1292;59418;-81
2023/09/20 09:22:06;;;;;;;12.70;6.80;;;;;;;25.34;41.90;101088.41;104721;1291;59409;-81
2023/09/20 09:24:48;;;;;;;11.70;5.50;;;;;;;25.36;41.77;101083.38;104521;1291;59652;-81
2023/09/20 09:27:15;;;;;;;15.10;6.30;;;;;;;25.36;41.67;101079.94;105924;1292;65683;-81
2023/09/20 09:29:42;;;;;;;9.30;5.70;;;;;;;25.40;41.78;101078.90;104442;1291;59786;-83
2023/09/20 09:32:07;;;;;;;9.80;5.60;;;;;;;25.43;41.75;101075.59;104198;1292;61728;-82
2023/09/20 09:34:34;;;;;;;12.00;6.40;;;;;;;25.43;41.67;101077.02;104410;1291;59475;-81
2023/09/20 09:36:59;;;;;;;11.50;5.50;;;;;;;25.43;41.63;101079.16;104496;1291;61078;-82
2023/09/20 09:39:25;;;;;;;10.20;5.70;;;;;;;25.46;41.70;101073.20;104483;1291;61318;-81
2023/09/20 09:41:53;;;;;;;14.60;5.40;;;;;;;25.48;41.68;101073.04;104443;1297;60194;-81
2023/09/20 09:44:20;;;;;;;9.60;5.20;;;;;;;25.50;41.75;101069.92;104736;1292;61198;-82
2023/09/20 09:46:45;;;;;;;11.10;5.40;;;;;;;25.52;41.57;101070.25;104679;1291;61405;-83
2023/09/20 09:49:18;;;;;;;10.80;5.60;;;;;;;25.55;41.50;101067.88;104941;1291;61393;-82
2023/09/20 09:51:50;;;;;;;10.50;5.90;;;;;;;25.57;41.60;101064.11;104760;1291;60265;-82
2023/09/20 09:54:21;;;;;;;14.50;5.80;;;;;;;25.58;41.56;101062.36;104603;1292;64023;-82
2023/09/20 09:56:49;;;;;;;12.80;5.60;;;;;;;25.60;41.45;101063.27;104599;1290;65852;-82
2023/09/20 09:59:15;;;;;;;8.90;5.40;;;;;;;25.60;41.47;101065.24;104652;1291;61135;-82
2023/09/20 10:01:41;;;;;;;15.20;5.60;;;;;;;25.62;41.42;101066.95;105183;1292;61252;-82
2023/09/20 10:04:10;;;;;;;18.90;6.20;;;;;;;25.61;41.34;101063.02;105066;1291;59208;-82
2023/09/20 10:07:16;;;;;;;29.90;6.40;;;;;;;25.61;41.14;101063.56;104901;1292;65860;-85
2023/09/20 10:09:45;;;;;;;25.40;6.50;;;;;;;25.56;41.10;101062.33;104346;1297;61292;-81
2023/09/20 10:12:11;;;;;;;20.30;6.20;;;;;;;25.55;41.08;101059.23;104403;1298;61206;-81
2023/09/20 10:14:37;;;;;;;14.60;5.90;;;;;;;25.51;40.87;101061.01;104037;1300;61374;-81
2023/09/20 10:17:06;;;;;;;16.00;6.50;;;;;;;25.44;40.83;101062.01;104106;1297;61459;-81
2023/09/20 10:19:32;;;;;;;14.90;6.00;;;;;;;25.42;40.96;101062.67;103999;1300;59392;-81
2023/09/20 10:22:01;;;;;;;14.70;6.30;;;;;;;25.44;40.93;101056.70;104230;1297;61348;-82
2023/09/20 10:24:27;;;;;;;15.40;5.70;;;;;;;25.48;41.00;101051.02;103989;1305;63934;-81
2023/09/20 10:26:54;;;;;;;12.30;5.50;;;;;;;25.50;41.00;101047.21;104151;1300;65862;-82
2023/09/20 10:29:21;;;;;;;14.10;5.80;;;;;;;25.53;40.97;101046.21;104166;1299;61287;-82
2023/09/20 10:31:47;;;;;;;13.60;5.30;;;;;;;25.57;41.05;101047.29;104174;1300;59043;-81
2023/09/20 10:34:13;;;;;;;21.40;6.40;;;;;;;25.61;41.15;101047.57;104140;1300;59406;-82
2023/09/20 10:36:40;;;;;;;13.50;5.60;;;;;;;25.63;41.09;101042.52;104001;1306;61364;-81
2023/09/20 10:39:11;;;;;;;16.80;5.90;;;;;;;25.65;41.13;101049.21;104412;1300;61413;-81
2023/09/20 10:41:40;;;;;;;16.00;5.60;;;;;;;25.65;41.16;101045.36;104827;1297;61331;-82
2023/09/20 10:44:06;;;;;;;22.30;6.60;;;;;;;25.67;41.32;101044.27;104971;1290;63688;-82
2023/09/20 10:46:35;;;;;;;21.70;6.10;;;;;;;25.70;41.09;101042.47;105379;1291;59839;-82
2023/09/20 10:49:00;;;;;;;;;;;;;;;25.69;41.11;101040.77;105729;1291;59236;-82
2023/09/20 10:51:49;;;;;;;9.50;5.30;;;;;;;25.65;40.91;101037.69;105755;1291;59292;-82
2023/09/20 10:54:23;;;;;;;22.20;6.40;;;;;;;25.65;40.96;101037.29;105866;1292;63921;-82
2023/09/20 10:56:51;;;;;;;13.40;5.80;;;;;;;25.67;40.76;101040.77;105577;1292;65684;-82
2023/09/20 10:59:21;;;;;;;17.70;6.00;;;;;;;25.67;40.72;101040.52;105522;1291;61206;-81
2023/09/20 11:01:51;;;;;;;32.10;7.10;;;;;;;25.68;40.70;101037.57;105338;1291;60371;-82
2023/09/20 11:04:20;;;;;;;25.90;6.50;;;;;;;25.71;40.72;101037.27;105531;1295;63848;-82
2023/09/20 11:06:54;;;;;;;13.80;5.60;;;;;;;25.73;40.98;101037.48;105464;1291;65964;-82
2023/09/20 11:09:23;;;;;;;14.00;5.50;;;;;;;25.73;40.70;101034.03;105532;1291;59062;-81
2023/09/20 11:11:50;;;;;;;18.40;6.70;;;;;;;25.74;40.93;101036.14;105406;1291;61320;-82
2023/09/20 11:14:18;;;;;;;24.90;6.20;;;;;;;25.77;40.85;101033.73;105435;1291;64457;-83
2023/09/20 11:16:44;;;;;;;12.80;5.90;;;;;;;25.80;40.93;101032.61;105528;1291;65699;-83
2023/09/20 11:19:13;;;;;;;10.30;5.50;;;;;;;25.80;40.76;101029.14;105288;1291;59399;-82
2023/09/20 11:21:42;;;;;;;11.30;5.40;;;;;;;25.80;40.78;101020.88;105177;1291;59408;-82
2023/09/20 11:24:15;;;;;;;8.80;5.40;;;;;;;25.81;40.79;101019.84;105173;1291;63727;-82
2023/09/20 11:26:43;;;;;;;11.40;5.60;;;;;;;25.82;40.56;101018.64;105180;1291;65865;-82
2023/09/20 11:29:09;;;;;;;15.10;5.60;;;;;;;25.83;40.32;101015.34;105183;1292;61387;-82
2023/09/20 11:31:36;;;;;;;10.50;5.30;;;;;;;25.83;40.27;101015.85;105017;1293;61436;-82
2023/09/20 11:34:03;;;;;;;13.00;5.90;;;;;;;25.82;40.08;101011.11;104988;1293;63940;-82
2023/09/20 11:36:30;;;;;;;12.80;5.50;;;;;;;25.81;40.22;101008.87;104659;1296;65799;-82
2023/09/20 11:38:55;;;;;;;12.10;5.70;;;;;;;25.80;40.17;101007.16;104837;1295;61439;-81
2023/09/20 11:41:23;;;;;;;15.40;6.50;;;;;;;25.78;40.00;101007.27;104769;1291;59865;-82
2023/09/20 11:43:53;;;;;;;14.10;6.40;;;;;;;25.78;40.04;101010.94;104740;1295;63736;-81
2023/09/20 11:46:20;;;;;;;13.40;6.00;;;;;;;25.78;40.05;101004.39;104739;1292;65890;-82
2023/09/20 11:48:50;;;;;;;17.60;6.60;;;;;;;25.79;40.17;101004.67;104904;1292;59278;-82
2023/09/20 11:51:16;;;;;;;14.20;6.10;;;;;;;25.81;40.23;101001.45;104893;1292;61388;-82
2023/09/20 11:53:44;;;;;;;19.90;6.00;;;;;;;25.82;40.22;101004.09;104864;1295;61131;-81
2023/09/20 11:56:10;;;;;;;14.40;6.10;;;;;;;25.81;40.13;101006.71;104876;1295;65920;-82